Time;durP1;ratioP1;P1;durP2;ratioP2;P2;SDS_P1;SDS_P2;PMS_P1;PMS_P2;Temp;Humidity;BMP_temperature;BMP_pressure;BME280_temperature;BME280_humidity;BME280_pressure;Samples;Min_cycle;Max_cycle;Signal;HPM_P1;HPM_P2
2023/07/25 00:00:27;;;;;;;;;;;;;;;;;;5071160;28;20372;-79
2023/07/25 00:02:54;;;;;;;;;;;;;;;;;;5070206;28;19931;-79
2023/07/25 00:05:22;;;;;;;;;;;;;;;;;;5070405;28;19932;-79
2023/07/25 00:07:54;;;;;;;;;;;;;;;;;;5070025;28;19932;-80
2023/07/25 00:10:22;;;;;;;;;;;;;;;;;;5068444;28;19924;-79
2023/07/25 00:12:52;;;;;;;;;;;;;;;;;;5071328;28;20321;-79
2023/07/25 00:15:25;;;;;;;;;;;;;;;;;;5069589;28;20590;-80
2023/07/25 00:17:53;;;;;;;;;;;;;;;;;;5070015;28;19925;-80
2023/07/25 00:20:20;;;;;;;;;;;;;;;;;;5071381;28;19935;-81
2023/07/25 00:22:48;;;;;;;;;;;;;;;;;;5069926;28;19947;-80
2023/07/25 00:25:20;;;;;;;;;;;;;;;;;;5070821;28;19929;-79
2023/07/25 00:27:53;;;;;;;;;;;;;;;;;;5069974;28;19924;-79
2023/07/25 00:30:21;;;;;;;;;;;;;;;;;;5070863;28;20457;-79
2023/07/25 00:32:53;;;;;;;;;;;;;;;;;;5065892;28;19943;-80
2023/07/25 00:35:26;;;;;;;;;;;;;;;;;;5069175;28;19933;-80
2023/07/25 00:37:58;;;;;;;;;;;;;;;;;;5069827;28;19931;-80
2023/07/25 00:40:27;;;;;;;;;;;;;;;;;;5071197;28;19939;-80
2023/07/25 00:42:55;;;;;;;;;;;;;;;;;;5069198;28;19925;-80
2023/07/25 00:45:27;;;;;;;;;;;;;;;;;;5070767;28;19935;-80
2023/07/25 00:48:00;;;;;;;;;;;;;;;;;;5070396;28;20376;-79
2023/07/25 00:50:32;;;;;;;;;;;;;;;;;;5086555;28;19925;-82
2023/07/25 00:53:00;;;;;;;;;;;;;;;;;;5068570;28;19924;-80
2023/07/25 00:55:32;;;;;;;;;;;;;;;;;;5068879;28;19928;-79
2023/07/25 00:58:00;;;;;;;;;;;;;;;;;;5069151;28;19928;-79
2023/07/25 01:00:28;;;;;;;;;;;;;;;;;;5070428;28;19924;-80
2023/07/25 01:02:55;;;;;;;;;;;;;;;;;;5068739;28;19928;-79
2023/07/25 01:05:23;;;;;;;;;;;;;;;;;;5070479;28;20296;-80
2023/07/25 01:07:55;;;;;;;;;;;;;;;;;;5067411;28;19929;-79
2023/07/25 01:10:28;;;;;;;;;;;;;;;;;;5070359;28;20015;-81
2023/07/25 01:13:00;;;;;;;;;;;;;;;;;;5069871;28;20655;-80
2023/07/25 01:15:33;;;;;;;;;;;;;;;;;;5068789;28;20502;-80
2023/07/25 01:18:00;;;;;;;;;;;;;;;;;;5068559;28;20308;-79
2023/07/25 01:20:28;;;;;;;;;;;;;;;;;;5069509;28;20521;-80
2023/07/25 01:22:56;;;;;;;;;;;;;;;;;;5067975;28;19928;-79
2023/07/25 01:25:23;;;;;;;;;;;;;;;;;;5070334;28;20312;-81
2023/07/25 01:27:51;;;;;;;;;;;;;;;;;;5067039;28;19936;-81
2023/07/25 01:30:19;;;;;;;;;;;;;;;;;;5066698;28;19935;-81
2023/07/25 01:32:51;;;;;;;;;;;;;;;;;;5068555;28;20385;-80
2023/07/25 01:35:19;;;;;;;;;;;;;;;;;;5068692;28;19924;-80
2023/07/25 01:37:51;;;;;;;;;;;;;;;;;;5069107;28;19944;-79
2023/07/25 01:40:24;;;;;;;;;;;;;;;;;;5066993;28;19933;-80
2023/07/25 01:42:51;;;;;;;;;;;;;;;;;;5067105;28;19928;-79
2023/07/25 01:45:24;;;;;;;;;;;;;;;;;;5068586;28;19924;-80
2023/07/25 01:47:51;;;;;;;;;;;;;;;;;;5070642;28;19929;-80
2023/07/25 01:50:19;;;;;;;;;;;;;;;;;;5069177;28;19939;-80
2023/07/25 01:52:46;;;;;;;;;;;;;;;;;;5068248;28;19940;-80
2023/07/25 01:55:14;;;;;;;;;;;;;;;;;;5067715;28;19928;-79
2023/07/25 01:57:47;;;;;;;;;;;;;;;;;;5068209;28;19932;-81
2023/07/25 02:00:19;;;;;;;;;;;;;;;;;;5067940;28;19951;-80
2023/07/25 02:02:47;;;;;;;;;;;;;;;;;;5069232;28;19939;-80
2023/07/25 02:05:19;;;;;;;;;;;;;;;;;;5067283;28;19936;-80
2023/07/25 02:07:47;;;;;;;;;;;;;;;;;;5066971;28;19982;-80
2023/07/25 02:10:19;;;;;;;;;;;;;;;;;;5068546;28;19928;-80
2023/07/25 02:12:53;;;;;;;;;;;;;;;;;;5069352;28;19936;-79
2023/07/25 02:15:25;;;;;;;;;;;;;;;;;;5067918;28;19925;-81
2023/07/25 02:17:53;;;;;;;;;;;;;;;;;;5069356;28;19935;-80
2023/07/25 02:20:22;;;;;;;;;;;;;;;;;;5067782;28;19935;-80
2023/07/25 02:22:50;;;;;;;;;;;;;;;;;;5067823;28;19924;-80
2023/07/25 02:25:18;;;;;;;;;;;;;;;;;;5068286;28;20066;-80
2023/07/25 02:27:50;;;;;;;;;;;;;;;;;;5067004;28;19928;-80
2023/07/25 02:30:18;;;;;;;;;;;;;;;;;;5066615;28;20388;-81
2023/07/25 02:32:46;;;;;;;;;;;;;;;;;;5066163;28;19924;-80
2023/07/25 02:35:18;;;;;;;;;;;;;;;;;;5069366;28;19936;-80
2023/07/25 02:37:51;;;;;;;;;;;;;;;;;;5068821;28;19935;-80
2023/07/25 02:40:18;;;;;;;;;;;;;;;;;;5073007;28;19939;-80
2023/07/25 02:42:51;;;;;;;;;;;;;;;;;;5073976;28;19928;-79
2023/07/25 02:45:18;;;;;;;;;;;;;;;;;;5071453;28;19939;-80
2023/07/25 02:47:51;;;;;;;;;;;;;;;;;;5084495;28;19936;-79
2023/07/25 02:50:18;;;;;;;;;;;;;;;;;;5066440;28;19932;-79
2023/07/25 02:52:46;;;;;;;;;;;;;;;;;;5069752;28;19928;-81
2023/07/25 02:55:14;;;;;;;;;;;;;;;;;;5065045;28;19929;-80
2023/07/25 02:57:47;;;;;;;;;;;;;;;;;;5067989;28;20014;-80
2023/07/25 03:03:48;;;;;;;;;;;;;;;;;;5305512;22;19933;-77
2023/07/25 03:06:15;;;;;;;;;;;;;;;;;;5005124;28;19925;-75
2023/07/25 03:08:43;;;;;;;;;;;;;;;;;;5001670;28;19936;-78
2023/07/25 03:11:15;;;;;;;;;;;;;;;;;;5018811;28;19936;-76
2023/07/25 03:13:43;;;;;;;;;;;;;;;;;;5004792;28;19934;-77
2023/07/25 03:16:11;;;;;;;;;;;;;;;;;;5001506;28;19929;-75
2023/07/25 03:18:38;;;;;;;;;;;;;;;;;;5001444;28;19930;-77
2023/07/25 03:21:06;;;;;;;;;;;;;;;;;;5019026;28;19929;-76
2023/07/25 03:23:34;;;;;;;;;;;;;;;;;;5000882;28;20014;-76
2023/07/25 03:26:01;;;;;;;;;;;;;;;;;;5004561;28;20385;-77
2023/07/25 03:28:34;;;;;;;;;;;;;;;;;;5019703;28;19968;-76
2023/07/25 03:31:01;;;;;;;;;;;;;;;;;;4982544;28;19929;-76
2023/07/25 03:33:34;;;;;;;;;;;;;;;;;;5002825;28;19933;-76
2023/07/25 03:36:07;;;;;;;;;;;;;;;;;;5010011;28;19926;-76
2023/07/25 03:38:34;;;;;;;;;;;;;;;;;;5017628;28;19926;-76
2023/07/25 03:41:07;;;;;;;;;;;;;;;;;;5019186;28;19937;-75
2023/07/25 03:43:39;;;;;;;;;;;;;;;;;;5017136;28;19930;-75
2023/07/25 03:46:07;;;;;;;;;;;;;;;;;;5003211;28;20715;-77
2023/07/25 03:48:34;;;;;;;;;;;;;;;;;;5018809;28;19929;-76
2023/07/25 03:51:02;;;;;;;;;;;;;;;;;;5000154;28;19971;-76
2023/07/25 03:53:30;;;;;;;;;;;;;;;;;;5016236;28;19926;-77
2023/07/25 03:55:57;;;;;;;;;;;;;;;;;;4999118;28;19930;-76
2023/07/25 03:58:30;;;;;;;;;;;;;;;;;;5017143;28;19930;-75
2023/07/25 04:00:57;;;;;;;;;;;;;;;;;;5005273;28;19929;-77
2023/07/25 04:03:30;;;;;;;;;;;;;;;;;;5011861;28;19933;-76
2023/07/25 04:05:57;;;;;;;;;;;;;;;;;;5006346;28;19930;-77
2023/07/25 04:08:30;;;;;;;;;;;;;;;;;;4984224;28;20278;-76
2023/07/25 04:10:57;;;;;;;;;;;;;;;;;;4982581;28;19929;-77
2023/07/25 04:13:30;;;;;;;;;;;;;;;;;;4989419;28;19930;-75
2023/07/25 04:16:03;;;;;;;;;;;;;;;;;;4999383;28;19930;-77
2023/07/25 04:18:35;;;;;;;;;;;;;;;;;;5013711;28;19930;-77
2023/07/25 04:21:03;;;;;;;;;;;;;;;;;;4984450;28;19950;-75
2023/07/25 04:23:30;;;;;;;;;;;;;;;;;;5016296;28;19970;-75
2023/07/25 04:26:03;;;;;;;;;;;;;;;;;;4997020;28;20391;-77
2023/07/25 04:28:30;;;;;;;;;;;;;;;;;;5000534;28;19933;-76
2023/07/25 04:30:58;;;;;;;;;;;;;;;;;;5000172;28;20291;-76
2023/07/25 04:33:30;;;;;;;;;;;;;;;;;;4999546;28;19933;-76
2023/07/25 04:36:03;;;;;;;;;;;;;;;;;;5016040;28;19930;-75
2023/07/25 04:38:30;;;;;;;;;;;;;;;;;;4985654;28;19933;-76
2023/07/25 04:40:58;;;;;;;;;;;;;;;;;;4981504;28;19930;-76
2023/07/25 04:43:26;;;;;;;;;;;;;;;;;;4984792;28;19930;-76
2023/07/25 04:45:53;;;;;;;;;;;;;;;;;;5014763;28;19930;-76
2023/07/25 04:48:21;;;;;;;;;;;;;;;;;;4982802;28;19930;-75
2023/07/25 04:50:53;;;;;;;;;;;;;;;;;;5016397;28;19955;-76
2023/07/25 04:53:26;;;;;;;;;;;;;;;;;;4988870;28;19929;-75
2023/07/25 04:55:58;;;;;;;;;;;;;;;;;;5017364;28;19936;-77
2023/07/25 04:58:26;;;;;;;;;;;;;;;;;;4983973;28;19933;-75
2023/07/25 05:00:53;;;;;;;;;;;;;;;;;;5015353;28;19933;-77
2023/07/25 05:03:26;;;;;;;;;;;;;;;;;;4981311;28;19937;-75
2023/07/25 05:05:54;;;;;;;;;;;;;;;;;;4982447;28;19937;-75
2023/07/25 05:08:21;;;;;;;;;;;;;;;;;;5012970;28;19930;-77
2023/07/25 05:10:49;;;;;;;;;;;;;;;;;;5002079;28;20298;-78
2023/07/25 05:13:16;;;;;;;;;;;;;;;;;;4988346;28;19932;-75
2023/07/25 05:15:49;;;;;;;;;;;;;;;;;;4979552;28;19930;-77
2023/07/25 05:18:16;;;;;;;;;;;;;;;;;;4983420;28;19933;-79
2023/07/25 05:20:44;;;;;;;;;;;;;;;;;;5014232;28;19930;-78
2023/07/25 05:23:12;;;;;;;;;;;;;;;;;;4983045;28;19929;-78
2023/07/25 05:25:39;;;;;;;;;;;;;;;;;;4983018;28;20697;-76
2023/07/25 05:28:12;;;;;;;;;;;;;;;;;;4982153;28;19937;-77
2023/07/25 05:30:44;;;;;;;;;;;;;;;;;;5011188;28;19933;-76
2023/07/25 05:33:12;;;;;;;;;;;;;;;;;;5003894;28;19937;-76
2023/07/25 05:35:39;;;;;;;;;;;;;;;;;;4979694;28;19933;-76
2023/07/25 05:38:07;;;;;;;;;;;;;;;;;;4987165;28;19930;-78
2023/07/25 05:40:35;;;;;;;;;;;;;;;;;;4987829;28;19957;-76
2023/07/25 05:43:08;;;;;;;;;;;;;;;;;;4983775;28;19937;-77
2023/07/25 05:45:40;;;;;;;;;;;;;;;;;;4972517;28;19927;-76
2023/07/25 05:48:13;;;;;;;;;;;;;;;;;;5014364;28;20553;-76
2023/07/25 05:50:45;;;;;;;;;;;;;;;;;;4981996;28;19930;-77
2023/07/25 05:53:13;;;;;;;;;;;;;;;;;;4982091;28;20786;-78
2023/07/25 05:55:45;;;;;;;;;;;;;;;;;;4981128;28;19934;-76
2023/07/25 05:58:18;;;;;;;;;;;;;;;;;;4981191;28;19933;-76
2023/07/25 06:00:45;;;;;;;;;;;;;;;;;;4984024;28;20660;-78
2023/07/25 06:03:13;;;;;;;;;;;;;;;;;;4980379;28;19940;-79
2023/07/25 06:05:41;;;;;;;;;;;;;;;;;;4982196;28;19933;-77
2023/07/25 06:08:08;;;;;;;;;;;;;;;;;;4981843;28;19930;-77
2023/07/25 06:10:36;;;;;;;;;;;;;;;;;;4996495;28;19934;-77
2023/07/25 06:13:04;;;;;;;;;;;;;;;;;;4980218;28;19972;-78
2023/07/25 06:15:34;;;;;;;;;;;;;;;;;;4981283;28;19937;-78
2023/07/25 06:18:01;;;;;;;;;;;;;;;;;;4981175;28;19937;-76
2023/07/25 06:20:34;;;;;;;;;;;;;;;;;;4981858;28;19937;-78
2023/07/25 06:23:06;;;;;;;;;;;;;;;;;;4979681;28;20370;-76
2023/07/25 06:25:39;;;;;;;;;;;;;;;;;;5013663;28;19937;-77
2023/07/25 06:28:06;;;;;;;;;;;;;;;;;;4999362;28;19930;-76
2023/07/25 06:30:39;;;;;;;;;;;;;;;;;;4987424;28;19937;-76
2023/07/25 06:33:06;;;;;;;;;;;;;;;;;;4981482;28;19929;-79
2023/07/25 06:35:34;;;;;;;;;;;;;;;;;;4985080;28;20445;-77
2023/07/25 06:38:02;;;;;;;;;;;;;;;;;;4997675;28;19930;-76
2023/07/25 06:40:29;;;;;;;;;;;;;;;;;;4979410;28;19930;-76
2023/07/25 06:43:02;;;;;;;;;;;;;;;;;;4982218;28;19930;-80
2023/07/25 06:45:34;;;;;;;;;;;;;;;;;;4985454;28;19970;-76
2023/07/25 06:48:02;;;;;;;;;;;;;;;;;;5012857;28;19930;-76
2023/07/25 06:50:32;;;;;;;;;;;;;;;;;;5012211;28;19956;-77
2023/07/25 06:53:00;;;;;;;;;;;;;;;;;;4981798;28;19929;-76
2023/07/25 06:55:27;;;;;;;;;;;;;;;;;;4997334;28;20723;-77
2023/07/25 06:58:00;;;;;;;;;;;;;;;;;;4965596;28;19929;-77
2023/07/25 07:00:32;;;;;;;;;;;;;;;;;;4959564;28;20853;-80
2023/07/25 07:03:00;;;;;;;;;;;;;;;;;;4963806;28;19945;-79
2023/07/25 07:05:33;;;;;;;;;;;;;;;;;;4967671;28;19934;-79
2023/07/25 07:08:00;;;;;;;;;;;;;;;;;;4963324;28;19934;-78
2023/07/25 07:10:28;;;;;;;;;;;;;;;;;;4963726;28;19926;-79
2023/07/25 07:12:55;;;;;;;;;;;;;;;;;;4962476;28;19934;-78
2023/07/25 07:15:24;;;;;;;;;;;;;;;;;;4961224;28;19968;-78
2023/07/25 07:17:52;;;;;;;;;;;;;;;;;;4995685;28;19938;-80
2023/07/25 07:20:24;;;;;;;;;;;;;;;;;;4959949;28;19934;-80
2023/07/25 07:22:52;;;;;;;;;;;;;;;;;;4958522;28;20310;-78
2023/07/25 07:25:24;;;;;;;;;;;;;;;;;;4962433;28;19933;-80
2023/07/25 07:27:52;;;;;;;;;;;;;;;;;;4972283;28;19941;-77
2023/07/25 07:30:20;;;;;;;;;;;;;;;;;;4964898;28;19934;-78
2023/07/25 07:32:47;;;;;;;;;;;;;;;;;;4969586;28;19956;-78
2023/07/25 07:35:16;;;;;;;;;;;;;;;;;;4960493;28;19930;-87
2023/07/25 07:37:44;;;;;;;;;;;;;;;;;;4960709;28;20144;-77
2023/07/25 07:40:16;;;;;;;;;;;;;;;;;;4964305;28;19933;-79
2023/07/25 07:42:49;;;;;;;;;;;;;;;;;;4965053;28;19934;-80
2023/07/25 07:45:23;;;;;;;;;;;;;;;;;;4962162;28;19933;-80
2023/07/25 07:47:51;;;;;;;;;;;;;;;;;;4961704;28;20278;-80
2023/07/25 07:50:19;;;;;;;;;;;;;;;;;;4965728;28;19941;-80
2023/07/25 07:52:47;;;;;;;;;;;;;;;;;;4964631;28;20283;-78
2023/07/25 07:55:14;;;;;;;;;;;;;;;;;;4966901;28;20314;-76
2023/07/25 07:57:42;;;;;;;;;;;;;;;;;;4964851;28;19940;-78
2023/07/25 08:00:09;;;;;;;;;;;;;;;;;;4967422;28;20290;-80
2023/07/25 08:02:40;;;;;;;;;;;;;;;;;;4963871;28;19937;-79
2023/07/25 08:05:07;;;;;;;;;;;;;;;;;;4969857;28;20489;-79
2023/07/25 08:07:40;;;;;;;;;;;;;;;;;;4965998;28;19934;-80
2023/07/25 08:10:07;;;;;;;;;;;;;;;;;;4968160;28;19941;-78
2023/07/25 08:12:40;;;;;;;;;;;;;;;;;;4964534;28;19949;-77
2023/07/25 08:15:07;;;;;;;;;;;;;;;;;;4967085;28;19949;-80
2023/07/25 08:17:35;;;;;;;;;;;;;;;;;;4967250;28;20870;-81
2023/07/25 08:20:02;;;;;;;;;;;;;;;;;;4965525;28;19934;-76
2023/07/25 08:22:30;;;;;;;;;;;;;;;;;;4969336;28;20500;-77
2023/07/25 08:25:02;;;;;;;;;;;;;;;;;;4966676;28;19941;-77
2023/07/25 08:27:35;;;;;;;;;;;;;;;;;;4978752;28;19930;-78
2023/07/25 08:30:08;;;;;;;;;;;;;;;;;;4962416;28;19934;-80
2023/07/25 08:32:40;;;;;;;;;;;;;;;;;;4966555;28;19934;-78
2023/07/25 08:35:08;;;;;;;;;;;;;;;;;;4970424;28;19956;-83
2023/07/25 08:37:35;;;;;;;;;;;;;;;;;;4969374;28;19937;-78
2023/07/25 08:40:08;;;;;;;;;;;;;;;;;;4969685;28;19933;-81
2023/07/25 08:42:35;;;;;;;;;;;;;;;;;;4977633;28;19934;-82
2023/07/25 08:45:03;;;;;;;;;;;;;;;;;;4999329;28;19933;-80
2023/07/25 08:47:30;;;;;;;;;;;;;;;;;;4973694;28;19934;-80
2023/07/25 08:49:58;;;;;;;;;;;;;;;;;;4970765;28;20484;-82
2023/07/25 08:52:26;;;;;;;;;;;;;;;;;;4970162;28;19934;-83
2023/07/25 08:54:53;;;;;;;;;;;;;;;;;;4971352;28;20480;-80
2023/07/25 08:57:21;;;;;;;;;;;;;;;;;;4968945;28;19933;-83
2023/07/25 08:59:49;;;;;;;;;;;;;;;;;;4999026;28;20370;-78
2023/07/25 09:02:16;;;;;;;;;;;;;;;;;;4963734;28;19941;-80
2023/07/25 09:04:44;;;;;;;;;;;;;;;;;;4964966;28;19941;-82
2023/07/25 09:07:11;;;;;;;;;;;;;;;;;;5014334;28;19925;-77
2023/07/25 09:09:39;;;;;;;;;;;;;;;;;;4984357;28;19949;-78
2023/07/25 09:12:07;;;;;;;;;;;;;;;;;;4983519;28;19926;-77
2023/07/25 09:14:36;;;;;;;;;;;;;;;;;;4996988;28;19930;-75
2023/07/25 09:17:04;;;;;;;;;;;;;;;;;;5012916;28;19933;-75
2023/07/25 09:19:31;;;;;;;;;;;;;;;;;;4983152;28;19941;-77
2023/07/25 09:21:59;;;;;;;;;;;;;;;;;;4982673;28;19937;-76
2023/07/25 09:24:31;;;;;;;;;;;;;;;;;;5017623;28;19926;-77
2023/07/25 09:26:59;;;;;;;;;;;;;;;;;;5003590;28;19936;-76
2023/07/25 09:29:27;;;;;;;;;;;;;;;;;;4981378;28;20397;-79
2023/07/25 09:31:55;;;;;;;;;;;;;;;;;;4985771;28;19926;-79
2023/07/25 09:34:23;;;;;;;;;;;;;;;;;;5013887;28;19926;-76
2023/07/25 09:36:50;;;;;;;;;;;;;;;;;;4983077;28;19954;-77
2023/07/25 09:39:18;;;;;;;;;;;;;;;;;;4983112;28;19930;-76
2023/07/25 09:41:45;;;;;;;;;;;;;;;;;;4981463;28;19930;-78
2023/07/25 09:44:18;;;;;;;;;;;;;;;;;;4982869;28;19927;-76
2023/07/25 09:46:45;;;;;;;;;;;;;;;;;;4981206;28;19929;-78
2023/07/25 09:49:13;;;;;;;;;;;;;;;;;;4996215;28;19926;-77
2023/07/25 09:51:41;;;;;;;;;;;;;;;;;;5015827;28;20016;-76
2023/07/25 09:54:09;;;;;;;;;;;;;;;;;;4995982;28;19937;-77
2023/07/25 09:56:37;;;;;;;;;;;;;;;;;;4999134;28;19934;-76
2023/07/25 09:59:04;;;;;;;;;;;;;;;;;;5015327;28;19933;-76
2023/07/25 10:01:37;;;;;;;;;;;;;;;;;;4988451;28;20410;-78
2023/07/25 10:04:04;;;;;;;;;;;;;;;;;;4982421;28;19925;-76
2023/07/25 10:06:32;;;;;;;;;;;;;;;;;;4978453;28;19930;-77
2023/07/25 10:09:06;;;;;;;;;;;;;;;;;;4983581;28;20475;-77
2023/07/25 10:11:39;;;;;;;;;;;;;;;;;;5015167;28;20350;-77
2023/07/25 10:14:06;;;;;;;;;;;;;;;;;;4981789;28;19936;-78
2023/07/25 10:16:39;;;;;;;;;;;;;;;;;;5014473;28;20006;-76
2023/07/25 10:19:06;;;;;;;;;;;;;;;;;;4996375;28;20313;-76
2023/07/25 10:21:39;;;;;;;;;;;;;;;;;;4980563;28;20294;-74
2023/07/25 10:24:06;;;;;;;;;;;;;;;;;;4980197;28;19938;-79
2023/07/25 10:26:34;;;;;;;;;;;;;;;;;;4979662;28;19933;-75
2023/07/25 10:29:06;;;;;;;;;;;;;;;;;;4985629;28;19930;-77
2023/07/25 10:31:34;;;;;;;;;;;;;;;;;;4986887;28;20571;-76
2023/07/25 10:34:02;;;;;;;;;;;;;;;;;;4986010;28;20510;-76
2023/07/25 10:36:36;;;;;;;;;;;;;;;;;;5001875;28;19925;-78
2023/07/25 10:39:04;;;;;;;;;;;;;;;;;;4981543;28;19930;-75
2023/07/25 10:41:37;;;;;;;;;;;;;;;;;;5000710;28;19929;-80
2023/07/25 10:44:04;;;;;;;;;;;;;;;;;;4964830;28;19934;-75
2023/07/25 10:46:32;;;;;;;;;;;;;;;;;;4959129;28;19941;-80
2023/07/25 10:48:59;;;;;;;;;;;;;;;;;;4964738;28;19941;-79
2023/07/25 10:51:27;;;;;;;;;;;;;;;;;;4960163;28;20328;-79
2023/07/25 10:53:59;;;;;;;;;;;;;;;;;;4962295;28;19934;-79
2023/07/25 10:56:32;;;;;;;;;;;;;;;;;;4958612;28;19941;-79
2023/07/25 10:58:58;;;;;;;;;;;;;;;;;;4990418;28;19934;-78
2023/07/25 11:01:26;;;;;;;;;;;;;;;;;;4977784;28;20217;-80
2023/07/25 11:03:53;;;;;;;;;;;;;;;;;;4953591;28;20562;-77
2023/07/25 11:06:26;;;;;;;;;;;;;;;;;;4991321;28;19942;-79
2023/07/25 11:08:58;;;;;;;;;;;;;;;;;;4968000;28;20084;-77
2023/07/25 11:11:26;;;;;;;;;;;;;;;;;;4965964;28;19960;-77
2023/07/25 11:13:54;;;;;;;;;;;;;;;;;;4969290;28;19933;-77
2023/07/25 11:16:21;;;;;;;;;;;;;;;;;;4993993;28;19934;-78
2023/07/25 11:18:54;;;;;;;;;;;;;;;;;;4959901;28;19933;-79
2023/07/25 11:21:22;;;;;;;;;;;;;;;;;;4961043;28;19941;-75
2023/07/25 11:23:49;;;;;;;;;;;;;;;;;;4959772;28;20071;-76
2023/07/25 11:26:17;;;;;;;;;;;;;;;;;;4967770;28;19944;-79
2023/07/25 11:28:44;;;;;;;;;;;;;;;;;;5001645;28;20271;-79
2023/07/25 11:31:17;;;;;;;;;;;;;;;;;;4963099;28;19934;-80
2023/07/25 11:33:45;;;;;;;;;;;;;;;;;;4966735;28;19934;-74
2023/07/25 11:36:18;;;;;;;;;;;;;;;;;;4971792;28;19941;-78
2023/07/25 11:38:45;;;;;;;;;;;;;;;;;;4963862;28;19929;-79
2023/07/25 11:41:13;;;;;;;;;;;;;;;;;;4971077;28;19926;-75
2023/07/25 11:43:45;;;;;;;;;;;;;;;;;;4963546;28;19934;-78
2023/07/25 11:46:18;;;;;;;;;;;;;;;;;;4997280;28;19930;-79
2023/07/25 11:48:46;;;;;;;;;;;;;;;;;;4974519;28;19945;-80
2023/07/25 11:51:18;;;;;;;;;;;;;;;;;;4965404;28;19953;-79
2023/07/25 11:53:46;;;;;;;;;;;;;;;;;;4995361;28;19933;-79
2023/07/25 11:56:18;;;;;;;;;;;;;;;;;;4959934;28;19941;-79
2023/07/25 11:58:46;;;;;;;;;;;;;;;;;;4959602;28;19940;-78
2023/07/25 12:01:19;;;;;;;;;;;;;;;;;;4962845;28;19933;-77
2023/07/25 12:03:47;;;;;;;;;;;;;;;;;;4971660;28;19937;-78
2023/07/25 12:06:19;;;;;;;;;;;;;;;;;;4963146;28;19934;-75
2023/07/25 12:08:47;;;;;;;;;;;;;;;;;;4959893;28;19941;-80
2023/07/25 12:11:15;;;;;;;;;;;;;;;;;;4972321;28;19933;-77
2023/07/25 12:13:42;;;;;;;;;;;;;;;;;;4979537;28;20607;-79
2023/07/25 12:16:10;;;;;;;;;;;;;;;;;;4978775;28;19934;-80
2023/07/25 12:18:37;;;;;;;;;;;;;;;;;;4981768;28;19934;-80
2023/07/25 12:21:05;;;;;;;;;;;;;;;;;;4980499;28;19944;-78
2023/07/25 12:23:32;;;;;;;;;;;;;;;;;;4975366;28;19940;-78
2023/07/25 12:26:00;;;;;;;;;;;;;;;;;;5004821;28;20843;-82
2023/07/25 12:28:32;;;;;;;;;;;;;;;;;;4975452;28;19941;-78
2023/07/25 12:31:00;;;;;;;;;;;;;;;;;;5002195;28;19941;-78
2023/07/25 12:33:28;;;;;;;;;;;;;;;;;;4997981;28;20638;-77
2023/07/25 12:35:57;;;;;;;;;;;;;;;;;;4971282;28;19941;-81
2023/07/25 12:38:24;;;;;;;;;;;;;;;;;;4970307;28;20534;-80
2023/07/25 12:40:57;;;;;;;;;;;;;;;;;;4963067;28;20025;-78
2023/07/25 12:43:24;;;;;;;;;;;;;;;;;;4963948;28;20583;-77
2023/07/25 12:45:52;;;;;;;;;;;;;;;;;;4967433;28;19941;-78
2023/07/25 12:48:24;;;;;;;;;;;;;;;;;;4968289;28;19926;-77
2023/07/25 12:50:52;;;;;;;;;;;;;;;;;;4971671;28;20302;-80
2023/07/25 12:53:20;;;;;;;;;;;;;;;;;;5003224;28;19929;-80
2023/07/25 12:55:48;;;;;;;;;;;;;;;;;;4968862;28;19929;-80
2023/07/25 12:58:15;;;;;;;;;;;;;;;;;;4966793;28;20409;-80
2023/07/25 13:00:43;;;;;;;;;;;;;;;;;;4995782;28;19934;-80
2023/07/25 13:03:10;;;;;;;;;;;;;;;;;;4966611;28;19934;-78
2023/07/25 13:05:43;;;;;;;;;;;;;;;;;;4969496;28;19953;-80
2023/07/25 13:08:10;;;;;;;;;;;;;;;;;;4966735;28;19934;-80
2023/07/25 13:10:38;;;;;;;;;;;;;;;;;;4967888;28;19942;-76
2023/07/25 13:13:05;;;;;;;;;;;;;;;;;;4998420;28;19933;-79
2023/07/25 13:15:33;;;;;;;;;;;;;;;;;;4962296;28;20361;-79
2023/07/25 13:18:01;;;;;;;;;;;;;;;;;;4962573;28;19933;-79
2023/07/25 13:20:29;;;;;;;;;;;;;;;;;;4961744;28;20558;-78
2023/07/25 13:22:56;;;;;;;;;;;;;;;;;;4989029;28;19938;-78
2023/07/25 13:25:28;;;;;;;;;;;;;;;;;;4960560;28;19941;-79
2023/07/25 13:27:56;;;;;;;;;;;;;;;;;;4965019;28;19980;-80
2023/07/25 13:30:24;;;;;;;;;;;;;;;;;;4998867;28;21514;-79
2023/07/25 13:32:56;;;;;;;;;;;;;;;;;;4967155;28;19941;-77
2023/07/25 13:35:24;;;;;;;;;;;;;;;;;;4970788;28;20301;-77
2023/07/25 13:37:52;;;;;;;;;;;;;;;;;;4963511;28;19945;-80
2023/07/25 13:40:24;;;;;;;;;;;;;;;;;;4967481;28;19933;-80
2023/07/25 13:42:57;;;;;;;;;;;;;;;;;;4968409;28;19933;-79
2023/07/25 13:45:24;;;;;;;;;;;;;;;;;;4996073;28;19945;-78
2023/07/25 13:47:52;;;;;;;;;;;;;;;;;;5000407;28;19944;-80
2023/07/25 13:50:19;;;;;;;;;;;;;;;;;;4977908;28;19941;-80
2023/07/25 13:52:47;;;;;;;;;;;;;;;;;;4964668;28;20630;-79
2023/07/25 13:55:15;;;;;;;;;;;;;;;;;;4968538;28;19934;-80
2023/07/25 13:57:42;;;;;;;;;;;;;;;;;;5000271;28;19934;-80
2023/07/25 14:00:29;;;;;;;;;;;;;;;;;;4969164;28;20402;-77
2023/07/25 14:02:56;;;;;;;;;;;;;;;;;;4999781;28;19933;-82
2023/07/25 14:05:24;;;;;;;;;;;;;;;;;;4975299;28;19934;-78
2023/07/25 14:07:51;;;;;;;;;;;;;;;;;;4962836;28;19949;-77
2023/07/25 14:10:19;;;;;;;;;;;;;;;;;;4997427;28;19934;-79
2023/07/25 14:12:46;;;;;;;;;;;;;;;;;;4973744;28;20880;-79
2023/07/25 14:15:14;;;;;;;;;;;;;;;;;;4995004;28;19953;-78
2023/07/25 14:17:47;;;;;;;;;;;;;;;;;;4975612;28;19926;-77
2023/07/25 14:20:20;;;;;;;;;;;;;;;;;;5016964;28;19925;-75
2023/07/25 14:22:47;;;;;;;;;;;;;;;;;;4980993;28;20575;-77
2023/07/25 14:25:15;;;;;;;;;;;;;;;;;;4986160;28;19926;-75
2023/07/25 14:27:43;;;;;;;;;;;;;;;;;;4997332;28;19930;-77
2023/07/25 14:30:11;;;;;;;;;;;;;;;;;;4984059;28;19930;-76
2023/07/25 14:32:43;;;;;;;;;;;;;;;;;;4981239;28;19934;-77
2023/07/25 14:35:16;;;;;;;;;;;;;;;;;;4984397;28;19926;-76
2023/07/25 14:37:44;;;;;;;;;;;;;;;;;;4986550;28;20290;-78
2023/07/25 14:40:11;;;;;;;;;;;;;;;;;;5001736;28;20571;-75
2023/07/25 14:42:39;;;;;;;;;;;;;;;;;;4986427;28;20377;-76
2023/07/25 14:45:06;;;;;;;;;;;;;;;;;;4985107;28;19933;-76
2023/07/25 14:47:34;;;;;;;;;;;;;;;;;;5019352;28;19930;-78
2023/07/25 14:50:06;;;;;;;;;;;;;;;;;;4989361;28;19926;-76
2023/07/25 14:52:39;;;;;;;;;;;;;;;;;;4986346;28;19925;-76
2023/07/25 14:55:06;;;;;;;;;;;;;;;;;;5003089;28;19926;-78
2023/07/25 14:57:39;;;;;;;;;;;;;;;;;;5017722;28;19953;-77
2023/07/25 15:00:07;;;;;;;;;;;;;;;;;;4992132;28;20301;-75
2023/07/25 15:02:39;;;;;;;;;;;;;;;;;;4983497;28;19949;-75
2023/07/25 15:05:07;;;;;;;;;;;;;;;;;;5016458;28;19933;-76
2023/07/25 15:07:34;;;;;;;;;;;;;;;;;;5003834;28;19934;-77
2023/07/25 15:10:02;;;;;;;;;;;;;;;;;;4987060;28;20329;-76
2023/07/25 15:12:35;;;;;;;;;;;;;;;;;;4984924;28;20425;-77
2023/07/25 15:15:07;;;;;;;;;;;;;;;;;;4986161;28;19927;-78
2023/07/25 15:17:38;;;;;;;;;;;;;;;;;;4987021;28;19930;-76
2023/07/25 15:20:05;;;;;;;;;;;;;;;;;;4987869;28;19926;-77
2023/07/25 15:22:33;;;;;;;;;;;;;;;;;;5004411;28;20409;-79
2023/07/25 15:25:01;;;;;;;;;;;;;;;;;;4991688;28;19926;-76
2023/07/25 15:27:28;;;;;;;;;;;;;;;;;;5003599;28;20606;-76
2023/07/25 15:29:56;;;;;;;;;;;;;;;;;;4985704;28;19933;-76
2023/07/25 15:32:28;;;;;;;;;;;;;;;;;;4986085;28;19930;-77
2023/07/25 15:34:56;;;;;;;;;;;;;;;;;;4985442;28;19933;-77
2023/07/25 15:37:24;;;;;;;;;;;;;;;;;;4985264;28;19930;-77
2023/07/25 15:39:56;;;;;;;;;;;;;;;;;;5017908;28;19959;-76
2023/07/25 15:42:24;;;;;;;;;;;;;;;;;;4991430;28;20445;-79
2023/07/25 15:44:51;;;;;;;;;;;;;;;;;;4984327;28;19933;-76
2023/07/25 15:47:19;;;;;;;;;;;;;;;;;;5020602;28;19930;-78
2023/07/25 15:49:46;;;;;;;;;;;;;;;;;;4991210;28;19949;-79
2023/07/25 15:52:14;;;;;;;;;;;;;;;;;;5014478;28;20526;-78
2023/07/25 15:54:41;;;;;;;;;;;;;;;;;;4988593;28;19933;-79
2023/07/25 15:57:14;;;;;;;;;;;;;;;;;;5022477;28;20428;-78
2023/07/25 15:59:41;;;;;;;;;;;;;;;;;;4985669;28;19937;-77
2023/07/25 16:02:09;;;;;;;;;;;;;;;;;;4989473;28;19937;-76
2023/07/25 16:04:37;;;;;;;;;;;;;;;;;;4988827;28;19933;-78
2023/07/25 16:07:04;;;;;;;;;;;;;;;;;;5003029;28;19931;-77
2023/07/25 16:09:32;;;;;;;;;;;;;;;;;;4998391;28;19949;-76
2023/07/25 16:11:59;;;;;;;;;;;;;;;;;;5001255;28;19930;-77
2023/07/25 16:14:27;;;;;;;;;;;;;;;;;;4984343;28;19940;-78
2023/07/25 16:16:59;;;;;;;;;;;;;;;;;;4985891;28;20326;-77
2023/07/25 16:19:32;;;;;;;;;;;;;;;;;;4985939;28;20302;-76
2023/07/25 16:22:00;;;;;;;;;;;;;;;;;;5017195;28;19926;-77
2023/07/25 16:24:27;;;;;;;;;;;;;;;;;;4981505;28;19926;-76
2023/07/25 16:26:55;;;;;;;;;;;;;;;;;;5004515;28;19945;-77
2023/07/25 16:29:22;;;;;;;;;;;;;;;;;;4983095;28;19934;-77
2023/07/25 16:31:55;;;;;;;;;;;;;;;;;;4984353;28;19933;-75
2023/07/25 16:34:22;;;;;;;;;;;;;;;;;;5003104;28;19925;-76
2023/07/25 16:36:50;;;;;;;;;;;;;;;;;;5014547;28;19930;-77
2023/07/25 16:39:17;;;;;;;;;;;;;;;;;;4986960;28;20306;-77
2023/07/25 16:41:50;;;;;;;;;;;;;;;;;;4982790;28;19933;-77
2023/07/25 16:44:17;;;;;;;;;;;;;;;;;;5020083;28;19945;-78
2023/07/25 16:46:45;;;;;;;;;;;;;;;;;;5002432;28;19926;-79
2023/07/25 16:49:18;;;;;;;;;;;;;;;;;;4992188;28;19930;-76
2023/07/25 16:51:45;;;;;;;;;;;;;;;;;;5015553;28;19937;-76
2023/07/25 16:54:13;;;;;;;;;;;;;;;;;;4982973;28;19933;-79
2023/07/25 16:56:41;;;;;;;;;;;;;;;;;;4985782;28;19930;-81
2023/07/25 16:59:08;;;;;;;;;;;;;;;;;;4984395;28;20317;-83
2023/07/25 17:01:41;;;;;;;;;;;;;;;;;;5003694;28;19937;-81